SBFLSBCG

Guest
Details From SBFL - Hercillo Luz
To SBCG - Campo Grande
Flight Number -
Tags Generated
Created
Modified
Stats Distance 548 nm / 1,015 km
Max Altitude 0 ft / 0 m
Waypoints 3
Social Downloads 0
Likes 0
Share VATSIM

Download

Looking for another format? Having issues loading an existing format? Contact us
Advertisement - Login to hide

Notes

Generated

Route

SBFL IG SBCG

ID Type Via Altitude Latitude Longitude Leg Dist Tot Dist Heading (true) Name
O SBFL APT - 0 ft / 0 m -27.67664˚ -48.55458˚ - 0 nm - -
IG NDB - 0 ft / 0 m -20.48586˚ -54.68933˚ 547 nm 547 nm 321° / 323° SOJA NDB
O SBCG APT - 0 ft / 0 m -20.47754˚ -54.68069˚ 0 nm 547 nm 44° / 44° -

Altitude Profile

Advertisement - Login to hide

Weather


0- 5 10 15 20 25 30 35+ Temperature / ° C

Clouds and Precipitation
Forecast for 2017-12-13 18:00 UTC. Updated 2 hours ago

Ground ~20,000 ft ~40,000 ft Winds

SBFL

Details ICAO SBFL (FLN)
Name Hercillo Luz
Region Brazil
Timezone America/Sao_Paulo (UTC-2.0)
Stats Elevation 19 ft / 6 m (AMSL)
Location -27.670487° -48.547180°
Runways 2
Magnetic Variation 19.320° W

METAR

SBFL 131500Z 02015KT 9999 FEW030 BKN050 26/18 Q1017

Decode

TAF

TAF SBFL 130845Z 1312/1412 34006KT 9999 SCT020 TX27/1317Z TN20/1408Z BECMG 1316/1318 01017KT SCT030 BECMG 1320/1322 01012KT SCT020 RMK PEB

Decode

Departure Runways

ID Width Length Bearing (true) Bearing (mag) Surface Threshold Offset Overrun Length
03 148 ft / 45 m 4,939 ft / 1,505 m 11.55° 30.87° Concrete 0 ft / 0 m 0 ft / 0 m
14 148 ft / 45 m 7,543 ft / 2,299 m 121.30° 140.62° Asphalt 720 ft / 219 m 0 ft / 0 m
21 148 ft / 45 m 4,939 ft / 1,505 m 191.55° 210.87° Concrete 0 ft / 0 m 0 ft / 0 m
32 148 ft / 45 m 7,543 ft / 2,299 m 301.29° 320.61° Asphalt 0 ft / 0 m 200 ft / 61 m

SBCG

Details ICAO SBCG (CGR)
Name Campo Grande
Region Brazil
Timezone America/Campo_Grande (UTC-3.0)
Stats Elevation 1,833 ft / 559 m (AMSL)
Location -20.468666° -54.672500°
Runways 1
Magnetic Variation 17.530° W

METAR

SBCG 131500Z 32006KT 270V360 9999 SCT045 31/20 Q1014

Decode

TAF

TAF SBCG 130845Z 1312/1412 08009KT CAVOK TX32/1317Z TN22/1409Z BECMG 1312/1314 34009KT 9999 SCT025 PROB30 TEMPO 1314/1316 VCSH SCT030 FEW035TCU BECMG 1316/1318 12006KT BECMG 1320/1322 08009KT CAVOK RMK PEB

Decode

Destination Runways

ID Width Length Bearing (true) Bearing (mag) Surface Threshold Offset Overrun Length
06 141 ft / 43 m 8,563 ft / 2,610 m 40.84° 58.37° Asphalt 0 ft / 0 m 192 ft / 59 m
24 141 ft / 43 m 8,563 ft / 2,610 m 220.83° 238.36° Asphalt 0 ft / 0 m 190 ft / 58 m

Approach Navaids

Runway Type Ident Frequency Range Bearing (true) Bearing (mag) Slope Elevation
06 Localiser ICG 110.30 MHz 18 nm / 33 km 41.62° 59.15° - 1,833 ft / 559 m (AMSL)
06 Glidescope ICG 110.30 MHz 10 nm / 19 km 40.84° 58.37° 3.00° 1,833 ft / 559 m (AMSL)

Popular Alternatives